Terminal Aerodrome Forecast
Issued by NWS

Home | Current Version | Previous Version | Text Only | Print | Product List | Glossary On
Versions: 1 2 3 4 5 6 7 8 9 10 11 12 13 14 15
000
FTUS42 KFFC 011733
TAFRYY
TAF
KRYY 011733Z 0118/0218 16008KT P6SM OVC015
     FM012000 16008KT 6SM -RA OVC020
     FM020200 18010KT 3SM RA OVC008
     FM020600 19012G17KT 3SM -RA OVC008
     FM021200 29012KT 6SM -RA SCT008 OVC012
     FM021300 29013G18KT P6SM OVC025
     FM021700 31015G25KT P6SM BKN035=

USA.gov is the U.S. government's official web portal to all federal, state and local government web resources and services.